sensor_id;sensor_type;location;lat;lon;timestamp;P1;durP1;ratioP1;P2;durP2;ratioP2
6499;SDS011;3283;52.330;9.772;2023-04-03T04:04:03;332.88;;;83.57;;
6499;SDS011;3283;52.330;9.772;2023-04-03T04:06:28;274.90;;;71.50;;
6499;SDS011;3283;52.330;9.772;2023-04-03T04:08:54;240.33;;;66.40;;
6499;SDS011;3283;52.330;9.772;2023-04-03T04:11:19;221.77;;;61.73;;
6499;SDS011;3283;52.330;9.772;2023-04-03T04:13:46;232.20;;;70.73;;
6499;SDS011;3283;52.330;9.772;2023-04-03T04:16:11;217.30;;;66.37;;
6499;SDS011;3283;52.330;9.772;2023-04-03T04:18:37;205.70;;;62.07;;
6499;SDS011;3283;52.330;9.772;2023-04-03T04:21:02;195.60;;;63.00;;
6499;SDS011;3283;52.330;9.772;2023-04-03T04:23:27;233.77;;;67.17;;
6499;SDS011;3283;52.330;9.772;2023-04-03T04:25:53;217.17;;;65.63;;
6499;SDS011;3283;52.330;9.772;2023-04-03T04:28:18;204.20;;;64.80;;
6499;SDS011;3283;52.330;9.772;2023-04-03T04:30:44;199.57;;;62.27;;
6499;SDS011;3283;52.330;9.772;2023-04-03T04:33:10;190.47;;;58.37;;
6499;SDS011;3283;52.330;9.772;2023-04-03T04:35:35;203.17;;;61.83;;
6499;SDS011;3283;52.330;9.772;2023-04-03T04:38:01;206.47;;;60.27;;
6499;SDS011;3283;52.330;9.772;2023-04-03T04:40:27;211.63;;;69.23;;
6499;SDS011;3283;52.330;9.772;2023-04-03T04:42:52;190.37;;;57.87;;
6499;SDS011;3283;52.330;9.772;2023-04-03T04:45:18;232.47;;;75.50;;
6499;SDS011;3283;52.330;9.772;2023-04-03T04:47:43;204.90;;;64.57;;
6499;SDS011;3283;52.330;9.772;2023-04-03T04:50:09;186.90;;;63.90;;
6499;SDS011;3283;52.330;9.772;2023-04-03T04:52:35;193.27;;;62.07;;
6499;SDS011;3283;52.330;9.772;2023-04-03T04:55:01;185.77;;;62.20;;
6499;SDS011;3283;52.330;9.772;2023-04-03T04:57:26;190.87;;;61.80;;
6499;SDS011;3283;52.330;9.772;2023-04-03T04:59:51;224.83;;;69.10;;
6499;SDS011;3283;52.330;9.772;2023-04-03T05:02:17;221.33;;;63.90;;
6499;SDS011;3283;52.330;9.772;2023-04-03T05:04:42;229.77;;;68.87;;
6499;SDS011;3283;52.330;9.772;2023-04-03T05:07:08;220.53;;;64.97;;
6499;SDS011;3283;52.330;9.772;2023-04-03T05:09:34;210.57;;;65.80;;
6499;SDS011;3283;52.330;9.772;2023-04-03T05:12:00;212.40;;;68.23;;
6499;SDS011;3283;52.330;9.772;2023-04-03T05:14:26;209.33;;;64.43;;
6499;SDS011;3283;52.330;9.772;2023-04-03T05:16:52;196.37;;;62.20;;
6499;SDS011;3283;52.330;9.772;2023-04-03T05:19:19;200.17;;;63.40;;
6499;SDS011;3283;52.330;9.772;2023-04-03T05:21:45;203.87;;;67.20;;
6499;SDS011;3283;52.330;9.772;2023-04-03T05:24:10;197.97;;;64.13;;
6499;SDS011;3283;52.330;9.772;2023-04-03T05:26:35;180.90;;;58.53;;
6499;SDS011;3283;52.330;9.772;2023-04-03T05:29:01;198.83;;;65.90;;
6499;SDS011;3283;52.330;9.772;2023-04-03T05:31:26;204.13;;;63.83;;
6499;SDS011;3283;52.330;9.772;2023-04-03T05:33:54;195.50;;;68.67;;
6499;SDS011;3283;52.330;9.772;2023-04-03T05:36:20;188.17;;;65.20;;
6499;SDS011;3283;52.330;9.772;2023-04-03T05:38:45;176.97;;;61.57;;
6499;SDS011;3283;52.330;9.772;2023-04-03T05:41:11;194.97;;;67.10;;
6499;SDS011;3283;52.330;9.772;2023-04-03T05:43:36;196.63;;;67.30;;
6499;SDS011;3283;52.330;9.772;2023-04-03T05:46:03;162.33;;;57.60;;
6499;SDS011;3283;52.330;9.772;2023-04-03T05:48:31;178.73;;;61.37;;
6499;SDS011;3283;52.330;9.772;2023-04-03T05:50:57;204.37;;;64.73;;
6499;SDS011;3283;52.330;9.772;2023-04-03T05:53:27;207.70;;;67.03;;
6499;SDS011;3283;52.330;9.772;2023-04-03T05:55:57;180.03;;;58.20;;
6499;SDS011;3283;52.330;9.772;2023-04-03T05:58:23;208.67;;;67.43;;
6499;SDS011;3283;52.330;9.772;2023-04-03T06:00:48;207.37;;;66.57;;
6499;SDS011;3283;52.330;9.772;2023-04-03T06:03:13;198.50;;;72.17;;
6499;SDS011;3283;52.330;9.772;2023-04-03T06:05:39;203.10;;;68.87;;
6499;SDS011;3283;52.330;9.772;2023-04-03T06:08:04;200.57;;;71.93;;
6499;SDS011;3283;52.330;9.772;2023-04-03T06:10:30;179.73;;;64.70;;
6499;SDS011;3283;52.330;9.772;2023-04-03T06:12:56;194.47;;;66.30;;
6499;SDS011;3283;52.330;9.772;2023-04-03T06:15:21;183.03;;;69.03;;
6499;SDS011;3283;52.330;9.772;2023-04-03T06:17:47;201.97;;;76.27;;
6499;SDS011;3283;52.330;9.772;2023-04-03T06:20:12;191.80;;;74.67;;
6499;SDS011;3283;52.330;9.772;2023-04-03T06:22:38;191.53;;;78.60;;
6499;SDS011;3283;52.330;9.772;2023-04-03T06:25:04;183.17;;;67.03;;
6499;SDS011;3283;52.330;9.772;2023-04-03T06:27:31;195.03;;;74.20;;
6499;SDS011;3283;52.330;9.772;2023-04-03T06:29:56;202.77;;;69.53;;
6499;SDS011;3283;52.330;9.772;2023-04-03T06:32:22;206.63;;;73.00;;
6499;SDS011;3283;52.330;9.772;2023-04-03T06:34:48;195.60;;;68.73;;
6499;SDS011;3283;52.330;9.772;2023-04-03T06:37:17;173.33;;;70.00;;
6499;SDS011;3283;52.330;9.772;2023-04-03T06:39:44;180.07;;;73.80;;
6499;SDS011;3283;52.330;9.772;2023-04-03T06:42:10;167.90;;;65.73;;
6499;SDS011;3283;52.330;9.772;2023-04-03T06:44:36;183.57;;;71.17;;
6499;SDS011;3283;52.330;9.772;2023-04-03T06:47:01;227.57;;;81.40;;
6499;SDS011;3283;52.330;9.772;2023-04-03T06:49:27;246.17;;;77.47;;
6499;SDS011;3283;52.330;9.772;2023-04-03T06:51:53;275.07;;;82.47;;
6499;SDS011;3283;52.330;9.772;2023-04-03T06:54:19;294.07;;;91.70;;
6499;SDS011;3283;52.330;9.772;2023-04-03T06:56:44;281.47;;;77.47;;
6499;SDS011;3283;52.330;9.772;2023-04-03T06:59:10;314.73;;;88.40;;
6499;SDS011;3283;52.330;9.772;2023-04-03T07:01:38;309.87;;;88.50;;
6499;SDS011;3283;52.330;9.772;2023-04-03T07:04:04;331.93;;;90.10;;
6499;SDS011;3283;52.330;9.772;2023-04-03T07:06:30;311.37;;;86.30;;
6499;SDS011;3283;52.330;9.772;2023-04-03T07:08:57;342.87;;;93.23;;
6499;SDS011;3283;52.330;9.772;2023-04-03T07:11:22;309.00;;;81.03;;
6499;SDS011;3283;52.330;9.772;2023-04-03T07:13:48;269.77;;;88.90;;
6499;SDS011;3283;52.330;9.772;2023-04-03T07:16:14;258.30;;;89.77;;
6499;SDS011;3283;52.330;9.772;2023-04-03T07:18:40;275.07;;;90.97;;
6499;SDS011;3283;52.330;9.772;2023-04-03T07:21:06;264.97;;;90.37;;
6499;SDS011;3283;52.330;9.772;2023-04-03T07:23:32;259.67;;;88.80;;
6499;SDS011;3283;52.330;9.772;2023-04-03T07:25:57;241.33;;;87.47;;
6499;SDS011;3283;52.330;9.772;2023-04-03T07:28:24;243.90;;;80.27;;
6499;SDS011;3283;52.330;9.772;2023-04-03T07:31:00;242.37;;;85.90;;
6499;SDS011;3283;52.330;9.772;2023-04-03T07:33:28;275.67;;;99.43;;
6499;SDS011;3283;52.330;9.772;2023-04-03T07:35:53;274.97;;;95.97;;
6499;SDS011;3283;52.330;9.772;2023-04-03T07:38:19;269.13;;;93.37;;
6499;SDS011;3283;52.330;9.772;2023-04-03T07:40:48;289.07;;;99.17;;
6499;SDS011;3283;52.330;9.772;2023-04-03T07:43:15;267.23;;;89.83;;
6499;SDS011;3283;52.330;9.772;2023-04-03T07:45:41;290.50;;;141.18;;
6499;SDS011;3283;52.330;9.772;2023-04-03T07:48:06;268.93;;;103.47;;
6499;SDS011;3283;52.330;9.772;2023-04-03T07:50:32;266.13;;;113.07;;
6499;SDS011;3283;52.330;9.772;2023-04-03T07:52:58;263.80;;;94.27;;
6499;SDS011;3283;52.330;9.772;2023-04-03T07:55:24;274.00;;;101.03;;
6499;SDS011;3283;52.330;9.772;2023-04-03T07:57:50;260.33;;;101.27;;
6499;SDS011;3283;52.330;9.772;2023-04-03T08:00:15;279.80;;;100.17;;
6499;SDS011;3283;52.330;9.772;2023-04-03T08:02:42;246.23;;;98.37;;
6499;SDS011;3283;52.330;9.772;2023-04-03T08:05:09;227.10;;;91.67;;
6499;SDS011;3283;52.330;9.772;2023-04-03T08:07:36;217.90;;;95.70;;
6499;SDS011;3283;52.330;9.772;2023-04-03T08:10:02;231.00;;;97.67;;
6499;SDS011;3283;52.330;9.772;2023-04-03T08:12:27;247.00;;;98.77;;
6499;SDS011;3283;52.330;9.772;2023-04-03T08:14:54;248.90;;;102.33;;
6499;SDS011;3283;52.330;9.772;2023-04-03T08:17:20;253.97;;;98.30;;
6499;SDS011;3283;52.330;9.772;2023-04-03T08:19:45;273.50;;;106.83;;
6499;SDS011;3283;52.330;9.772;2023-04-03T08:22:10;259.20;;;104.20;;
6499;SDS011;3283;52.330;9.772;2023-04-03T08:24:36;255.60;;;99.07;;
6499;SDS011;3283;52.330;9.772;2023-04-03T08:27:02;263.00;;;103.47;;
6499;SDS011;3283;52.330;9.772;2023-04-03T08:29:27;256.93;;;98.53;;
6499;SDS011;3283;52.330;9.772;2023-04-03T08:31:52;257.17;;;94.87;;
6499;SDS011;3283;52.330;9.772;2023-04-03T08:34:18;259.40;;;108.13;;
6499;SDS011;3283;52.330;9.772;2023-04-03T08:36:44;265.50;;;111.87;;
6499;SDS011;3283;52.330;9.772;2023-04-03T08:39:10;269.40;;;112.53;;
6499;SDS011;3283;52.330;9.772;2023-04-03T08:41:41;255.90;;;114.97;;
6499;SDS011;3283;52.330;9.772;2023-04-03T08:49:47;229.00;;;107.80;;
6499;SDS011;3283;52.330;9.772;2023-04-03T08:52:31;234.70;;;103.43;;
6499;SDS011;3283;52.330;9.772;2023-04-03T08:55:24;220.77;;;104.57;;
6499;SDS011;3283;52.330;9.772;2023-04-03T08:57:51;218.67;;;103.30;;
6499;SDS011;3283;52.330;9.772;2023-04-03T09:00:25;246.63;;;113.07;;
6499;SDS011;3283;52.330;9.772;2023-04-03T09:02:55;272.40;;;111.97;;
6499;SDS011;3283;52.330;9.772;2023-04-03T09:08:28;253.73;;;112.07;;
6499;SDS011;3283;52.330;9.772;2023-04-03T09:16:55;225.30;;;93.23;;
6499;SDS011;3283;52.330;9.772;2023-04-03T09:19:41;265.20;;;109.90;;
6499;SDS011;3283;52.330;9.772;2023-04-03T09:22:21;251.07;;;95.73;;
6499;SDS011;3283;52.330;9.772;2023-04-03T09:24:51;280.57;;;108.03;;
6499;SDS011;3283;52.330;9.772;2023-04-03T09:27:22;316.80;;;121.27;;
6499;SDS011;3283;52.330;9.772;2023-04-03T09:29:48;375.50;;;126.77;;
6499;SDS011;3283;52.330;9.772;2023-04-03T09:34:55;477.73;;;128.53;;
6499;SDS011;3283;52.330;9.772;2023-04-03T09:37:34;460.07;;;136.80;;
6499;SDS011;3283;52.330;9.772;2023-04-03T09:40:03;397.47;;;124.73;;
6499;SDS011;3283;52.330;9.772;2023-04-03T09:42:29;332.10;;;128.27;;
6499;SDS011;3283;52.330;9.772;2023-04-03T09:45:03;338.90;;;138.03;;
6499;SDS011;3283;52.330;9.772;2023-04-03T09:47:33;355.93;;;139.13;;
6499;SDS011;3283;52.330;9.772;2023-04-03T09:52:38;347.63;;;142.00;;
6499;SDS011;3283;52.330;9.772;2023-04-03T09:55:27;377.20;;;143.50;;
6499;SDS011;3283;52.330;9.772;2023-04-03T09:57:54;362.03;;;148.67;;
6499;SDS011;3283;52.330;9.772;2023-04-03T10:00:37;371.13;;;142.57;;
6499;SDS011;3283;52.330;9.772;2023-04-03T10:03:05;359.47;;;133.67;;
6499;SDS011;3283;52.330;9.772;2023-04-03T10:05:48;358.93;;;139.33;;
6499;SDS011;3283;52.330;9.772;2023-04-03T10:10:42;361.60;;;142.47;;
6499;SDS011;3283;52.330;9.772;2023-04-03T10:13:13;356.10;;;131.90;;
6499;SDS011;3283;52.330;9.772;2023-04-03T10:15:44;345.03;;;134.83;;
6499;SDS011;3283;52.330;9.772;2023-04-03T10:18:31;354.77;;;133.63;;
6499;SDS011;3283;52.330;9.772;2023-04-03T10:21:08;313.90;;;113.40;;
6499;SDS011;3283;52.330;9.772;2023-04-03T10:34:45;371.53;;;132.10;;
6499;SDS011;3283;52.330;9.772;2023-04-03T10:37:29;394.63;;;142.63;;
6499;SDS011;3283;52.330;9.772;2023-04-03T10:45:28;335.17;;;127.60;;
6499;SDS011;3283;52.330;9.772;2023-04-03T10:51:09;307.23;;;141.10;;
6499;SDS011;3283;52.330;9.772;2023-04-03T10:54:00;283.30;;;123.00;;
6499;SDS011;3283;52.330;9.772;2023-04-03T10:56:52;290.77;;;124.87;;
6499;SDS011;3283;52.330;9.772;2023-04-03T11:02:00;347.43;;;124.50;;
6499;SDS011;3283;52.330;9.772;2023-04-03T11:04:31;359.60;;;123.57;;
6499;SDS011;3283;52.330;9.772;2023-04-03T11:07:11;419.83;;;126.37;;
6499;SDS011;3283;52.330;9.772;2023-04-03T11:09:43;456.00;;;134.37;;
6499;SDS011;3283;52.330;9.772;2023-04-03T11:12:16;431.40;;;119.47;;
6499;SDS011;3283;52.330;9.772;2023-04-03T11:14:48;454.03;;;124.90;;
6499;SDS011;3283;52.330;9.772;2023-04-03T11:27:41;473.83;;;142.47;;
6499;SDS011;3283;52.330;9.772;2023-04-03T11:30:25;507.17;;;145.10;;
6499;SDS011;3283;52.330;9.772;2023-04-03T11:35:35;487.90;;;161.97;;
6499;SDS011;3283;52.330;9.772;2023-04-03T11:38:03;432.63;;;149.07;;
6499;SDS011;3283;52.330;9.772;2023-04-03T11:40:33;472.47;;;153.03;;
6499;SDS011;3283;52.330;9.772;2023-04-03T11:43:07;473.80;;;150.07;;
6499;SDS011;3283;52.330;9.772;2023-04-03T11:50:45;345.10;;;151.90;;
6499;SDS011;3283;52.330;9.772;2023-04-03T12:16:04;341.87;;;140.50;;
6499;SDS011;3283;52.330;9.772;2023-04-03T12:18:57;342.60;;;132.57;;
6499;SDS011;3283;52.330;9.772;2023-04-03T12:37:59;330.27;;;140.33;;
6499;SDS011;3283;52.330;9.772;2023-04-03T12:46:42;378.77;;;146.77;;
6499;SDS011;3283;52.330;9.772;2023-04-03T12:51:50;390.40;;;135.77;;
6499;SDS011;3283;52.330;9.772;2023-04-03T12:54:18;405.60;;;141.47;;
6499;SDS011;3283;52.330;9.772;2023-04-03T12:56:48;409.10;;;144.13;;
6499;SDS011;3283;52.330;9.772;2023-04-03T13:01:42;421.90;;;151.97;;
6499;SDS011;3283;52.330;9.772;2023-04-03T13:04:09;401.07;;;141.87;;
6499;SDS011;3283;52.330;9.772;2023-04-03T13:06:40;353.87;;;142.97;;
6499;SDS011;3283;52.330;9.772;2023-04-03T13:09:18;369.20;;;156.07;;
6499;SDS011;3283;52.330;9.772;2023-04-03T13:11:46;367.47;;;139.20;;
6499;SDS011;3283;52.330;9.772;2023-04-03T13:14:18;336.47;;;130.80;;
6499;SDS011;3283;52.330;9.772;2023-04-03T13:19:43;328.23;;;123.47;;
6499;SDS011;3283;52.330;9.772;2023-04-03T13:24:54;350.17;;;133.17;;
6499;SDS011;3283;52.330;9.772;2023-04-03T13:27:23;338.07;;;122.70;;
6499;SDS011;3283;52.330;9.772;2023-04-03T13:29:49;340.40;;;121.77;;
6499;SDS011;3283;52.330;9.772;2023-04-03T13:32:18;354.03;;;141.47;;
6499;SDS011;3283;52.330;9.772;2023-04-03T13:34:46;301.87;;;130.00;;
6499;SDS011;3283;52.330;9.772;2023-04-03T13:40:00;317.10;;;128.73;;
6499;SDS011;3283;52.330;9.772;2023-04-03T13:42:27;298.60;;;142.17;;
6499;SDS011;3283;52.330;9.772;2023-04-03T13:50:54;292.73;;;131.57;;
6499;SDS011;3283;52.330;9.772;2023-04-03T13:53:20;286.87;;;135.10;;
6499;SDS011;3283;52.330;9.772;2023-04-03T13:58:51;245.07;;;153.13;;
6499;SDS011;3283;52.330;9.772;2023-04-03T14:01:25;218.10;;;135.93;;
6499;SDS011;3283;52.330;9.772;2023-04-03T14:04:23;311.03;;;149.53;;
6499;SDS011;3283;52.330;9.772;2023-04-03T14:06:51;265.60;;;140.83;;
6499;SDS011;3283;52.330;9.772;2023-04-03T14:09:17;312.73;;;146.77;;
6499;SDS011;3283;52.330;9.772;2023-04-03T14:11:44;302.83;;;136.33;;
6499;SDS011;3283;52.330;9.772;2023-04-03T14:14:12;323.13;;;149.80;;
6499;SDS011;3283;52.330;9.772;2023-04-03T14:16:47;364.27;;;165.63;;
6499;SDS011;3283;52.330;9.772;2023-04-03T14:19:18;319.70;;;138.80;;
6499;SDS011;3283;52.330;9.772;2023-04-03T14:21:46;240.93;;;131.03;;
6499;SDS011;3283;52.330;9.772;2023-04-03T14:24:12;282.23;;;135.70;;
6499;SDS011;3283;52.330;9.772;2023-04-03T14:26:37;301.87;;;145.87;;
6499;SDS011;3283;52.330;9.772;2023-04-03T14:29:03;298.27;;;133.87;;
6499;SDS011;3283;52.330;9.772;2023-04-03T14:31:28;273.47;;;138.37;;
6499;SDS011;3283;52.330;9.772;2023-04-03T14:33:54;302.07;;;141.63;;
6499;SDS011;3283;52.330;9.772;2023-04-03T14:36:21;307.40;;;150.90;;
6499;SDS011;3283;52.330;9.772;2023-04-03T14:38:50;283.83;;;138.73;;
6499;SDS011;3283;52.330;9.772;2023-04-03T14:41:18;317.17;;;148.10;;
6499;SDS011;3283;52.330;9.772;2023-04-03T14:43:46;314.47;;;141.83;;
6499;SDS011;3283;52.330;9.772;2023-04-03T14:46:13;345.47;;;155.73;;
6499;SDS011;3283;52.330;9.772;2023-04-03T17:43:55;261.53;;;95.50;;
6499;SDS011;3283;52.330;9.772;2023-04-03T17:46:21;256.07;;;95.57;;
6499;SDS011;3283;52.330;9.772;2023-04-03T17:48:48;248.43;;;98.73;;
6499;SDS011;3283;52.330;9.772;2023-04-03T17:51:15;226.20;;;89.60;;
6499;SDS011;3283;52.330;9.772;2023-04-03T17:53:42;227.73;;;96.17;;
6499;SDS011;3283;52.330;9.772;2023-04-03T17:56:12;177.10;;;91.50;;
6499;SDS011;3283;52.330;9.772;2023-04-03T17:58:41;231.53;;;114.83;;
6499;SDS011;3283;52.330;9.772;2023-04-03T18:03:40;205.20;;;104.37;;
